Time;durP1;ratioP1;P1;durP2;ratioP2;P2;SDS_P1;SDS_P2;PMS_P1;PMS_P2;Temp;Humidity;BMP_temperature;BMP_pressure;BME280_temperature;BME280_humidity;BME280_pressure;Samples;Min_cycle;Max_cycle;Signal;HPM_P1;HPM_P2
2021/04/29 00:01:05;;;;;;;16.20;3.33;;;12.30;1.00;;;;;;6195394;23;20418;-82
2021/04/29 00:03:45;;;;;;;12.33;2.43;;;12.00;1.00;;;;;;6185117;23;20405;-82
2021/04/29 00:06:11;;;;;;;14.47;3.07;;;11.90;1.00;;;;;;6185324;23;20404;-82
2021/04/29 00:08:52;;;;;;;18.23;3.03;;;11.80;1.00;;;;;;6185397;23;20494;-82
2021/04/29 00:11:19;;;;;;;13.47;3.20;;;11.50;1.00;;;;;;6183960;23;20498;-82
2021/04/29 00:13:46;;;;;;;13.60;3.07;;;11.50;1.00;;;;;;6184958;23;20444;-81
2021/04/29 00:16:15;;;;;;;12.60;2.43;;;11.70;1.00;;;;;;6195137;23;20440;-82
2021/04/29 00:18:49;;;;;;;14.93;3.00;;;11.70;1.00;;;;;;6195434;23;20457;-82
2021/04/29 00:21:15;;;;;;;13.20;2.70;;;11.80;1.00;;;;;;6185232;23;20401;-81
2021/04/29 00:23:48;;;;;;;15.93;3.23;;;11.80;1.00;;;;;;6194928;23;20903;-81
2021/04/29 00:26:16;;;;;;;12.67;2.67;;;11.90;1.00;;;;;;6193987;23;20497;-82
2021/04/29 00:28:47;;;;;;;11.67;2.43;;;11.80;1.00;;;;;;6185139;23;20900;-82
2021/04/29 00:31:19;;;;;;;13.53;3.73;;;11.40;1.00;;;;;;6195268;23;20974;-82
2021/04/29 00:34:01;;;;;;;14.00;2.60;;;11.10;1.00;;;;;;6195182;23;20738;-82
2021/04/29 00:36:28;;;;;;;13.07;2.70;;;10.70;3.60;;;;;;6187403;23;20436;-81
2021/04/29 00:39:03;;;;;;;12.60;2.57;;;10.40;4.60;;;;;;6197094;23;20738;-81
2021/04/29 00:41:29;;;;;;;12.33;3.20;;;10.20;7.30;;;;;;6185786;23;20404;-81
2021/04/29 00:44:00;;;;;;;15.20;3.20;;;10.10;10.30;;;;;;6187366;23;20404;-81
2021/04/29 00:46:28;;;;;;;14.20;4.00;;;9.90;13.20;;;;;;6197327;23;20432;-82
2021/04/29 00:48:54;;;;;;;10.60;2.93;;;9.90;13.30;;;;;;6187041;23;20861;-82
2021/04/29 00:51:22;;;;;;;12.03;2.87;;;9.90;14.60;;;;;;6187174;23;20433;-82
2021/04/29 00:53:52;;;;;;;12.33;3.80;;;10.00;14.30;;;;;;6196659;23;20924;-82
2021/04/29 00:56:22;;;;;;;11.47;2.67;;;10.30;13.30;;;;;;6195521;23;20430;-83
2021/04/29 00:58:51;;;;;;;13.43;4.47;;;10.40;12.80;;;;;;6187063;23;20499;-82
2021/04/29 01:01:21;;;;;;;15.20;3.77;;;10.40;12.80;;;;;;6196597;23;20415;-82
2021/04/29 01:03:58;;;;;;;17.80;4.03;;;10.40;12.80;;;;;;6187059;23;20433;-82
2021/04/29 01:06:34;;;;;;;12.37;3.37;;;10.50;12.90;;;;;;6187160;23;20399;-82
2021/04/29 01:09:12;;;;;;;12.63;4.17;;;10.50;12.90;;;;;;6196866;23;20415;-82
2021/04/29 01:11:42;;;;;;;13.00;4.10;;;10.70;14.00;;;;;;6194613;23;20471;-82
2021/04/29 01:14:11;;;;;;;11.70;2.60;;;10.80;16.00;;;;;;6196482;23;20439;-81
2021/04/29 01:16:41;;;;;;;15.40;3.80;;;10.80;14.00;;;;;;6186977;23;20401;-83
2021/04/29 01:19:18;;;;;;;17.53;5.27;;;10.70;13.90;;;;;;6186952;23;20411;-82
2021/04/29 01:22:14;;;;;;;17.10;3.90;;;10.80;15.10;;;;;;6196839;23;20415;-82
2021/04/29 01:24:54;;;;;;;16.43;4.30;;;10.80;15.60;;;;;;6187086;23;20396;-82
2021/04/29 01:27:24;;;;;;;13.93;3.60;;;11.10;14.90;;;;;;6143010;23;20866;-82
2021/04/29 01:29:52;;;;;;;21.10;3.57;;;11.20;15.00;;;;;;6186750;23;20411;-82
2021/04/29 01:32:21;;;;;;;15.73;4.43;;;11.30;14.00;;;;;;6186980;23;20405;-82
2021/04/29 01:34:52;;;;;;;14.07;4.07;;;11.30;14.00;;;;;;6186486;23;20408;-81
2021/04/29 01:37:18;;;;;;;14.80;3.90;;;11.30;13.60;;;;;;6196681;23;20466;-83
2021/04/29 01:40:01;;;;;;;13.97;3.50;;;11.30;14.80;;;;;;6186932;23;20555;-81
2021/04/29 01:42:40;;;;;;;15.30;5.47;;;11.20;16.50;;;;;;6185008;23;20877;-82
2021/04/29 01:45:12;;;;;;;16.33;4.07;;;11.40;15.90;;;;;;6186514;23;20404;-82
2021/04/29 01:47:40;;;;;;;14.20;3.80;;;11.40;15.90;;;;;;6186285;23;20398;-83
2021/04/29 01:50:11;;;;;;;15.03;4.73;;;11.40;16.00;;;;;;6196132;23;20411;-82
2021/04/29 01:52:43;;;;;;;13.00;3.60;;;11.50;15.80;;;;;;6196686;23;20409;-82
2021/04/29 01:55:23;;;;;;;;;;;;;;;;;;;;;
2021/04/29 01:58:08;;;;;;;15.70;4.40;;;11.60;14.00;;;;;;6185655;23;20432;-82
2021/04/29 02:00:37;;;;;;;16.87;4.60;;;11.70;13.70;;;;;;6173813;23;20427;-82
2021/04/29 02:03:04;;;;;;;13.17;3.20;;;11.80;13.30;;;;;;6196212;23;20503;-83
2021/04/29 02:05:30;;;;;;;16.70;5.20;;;11.90;13.90;;;;;;6186157;23;20407;-78
2021/04/29 02:07:57;;;;;;;16.50;4.57;;;11.90;13.20;;;;;;6186343;23;20401;-80
2021/04/29 02:10:25;;;;;;;17.17;4.73;;;12.00;12.40;;;;;;6194551;23;20422;-80
2021/04/29 02:12:55;;;;;;;15.90;3.80;;;12.10;11.80;;;;;;6185995;23;20926;-80
2021/04/29 02:15:27;;;;;;;15.20;4.97;;;12.20;11.60;;;;;;6186508;23;20549;-80
2021/04/29 02:17:59;;;;;;;15.17;4.00;;;12.10;12.20;;;;;;6186271;23;20401;-79
2021/04/29 02:20:27;;;;;;;18.77;4.90;;;12.10;12.30;;;;;;6186361;23;20412;-78
2021/04/29 02:22:56;;;;;;;16.00;4.40;;;12.10;12.30;;;;;;6186623;23;20401;-81
2021/04/29 02:25:39;;;;;;;22.23;5.70;;;12.10;12.70;;;;;;6185000;23;20401;-82
2021/04/29 02:28:15;;;;;;;16.63;4.17;;;12.10;12.90;;;;;;6186402;23;20760;-83
2021/04/29 02:30:44;;;;;;;17.83;5.30;;;12.10;11.80;;;;;;6185184;23;20913;-82
2021/04/29 02:33:11;;;;;;;17.17;5.83;;;12.20;11.20;;;;;;6186117;23;20399;-82
2021/04/29 02:35:51;;;;;;;;;;;;;;;;;;;;;
2021/04/29 02:38:30;;;;;;;17.00;5.27;;;12.20;11.40;;;;;;6185471;23;20405;-83
2021/04/29 02:41:01;;;;;;;14.83;4.33;;;12.10;11.70;;;;;;6184679;23;20402;-82
2021/04/29 02:43:28;;;;;;;16.60;4.53;;;12.10;11.90;;;;;;6186275;23;20397;-82
2021/04/29 02:46:08;;;;;;;20.57;4.50;;;12.10;12.00;;;;;;6186140;23;20398;-82
2021/04/29 02:48:40;;;;;;;28.73;6.37;;;12.10;11.80;;;;;;6196030;23;20443;-82
2021/04/29 02:51:12;;;;;;;19.37;6.40;;;12.10;12.30;;;;;;6195700;23;20434;-82
2021/04/29 02:53:48;;;;;;;16.37;5.80;;;12.10;12.10;;;;;;6195503;23;20417;-82
2021/04/29 02:56:17;;;;;;;17.07;5.23;;;12.10;12.20;;;;;;6195067;23;20728;-82
2021/04/29 02:58:59;;;;;;;;;;;;;;;;;;;;;
2021/04/29 03:01:42;;;;;;;18.73;6.07;;;12.10;12.40;;;;;;6185173;23;20408;-82
2021/04/29 03:04:20;;;;;;;16.97;6.20;;;12.00;13.20;;;;;;6171776;23;20417;-80
2021/04/29 03:06:54;;;;;;;17.70;5.07;;;12.00;13.70;;;;;;6185634;23;20417;-82
2021/04/29 03:09:31;;;;;;;18.20;5.20;;;11.90;14.40;;;;;;6185573;23;20408;-81
2021/04/29 03:12:02;;;;;;;16.77;4.50;;;11.80;13.80;;;;;;6184597;23;20487;-82
2021/04/29 03:14:34;;;;;;;19.97;6.30;;;11.90;14.20;;;;;;6185186;23;20437;-81
2021/04/29 03:17:14;;;;;;;15.70;4.80;;;11.80;13.90;;;;;;6196193;23;20414;-82
2021/04/29 03:19:48;;;;;;;23.93;6.60;;;11.80;14.60;;;;;;6185836;23;20753;-82
2021/04/29 03:22:14;;;;;;;21.80;7.40;;;11.80;14.20;;;;;;6195974;23;20407;-82
2021/04/29 03:24:50;;;;;;;20.50;6.33;;;11.80;15.10;;;;;;6185623;23;20408;-82
2021/04/29 03:27:28;;;;;;;15.43;5.40;;;11.80;15.10;;;;;;6194603;23;20419;-82
2021/04/29 03:29:57;;;;;;;20.57;7.13;;;11.80;15.90;;;;;;6195350;23;20458;-82
2021/04/29 03:32:40;;;;;;;19.03;6.60;;;11.70;16.00;;;;;;6185721;23;20433;-82
2021/04/29 03:35:11;;;;;;;19.80;5.63;;;11.70;15.90;;;;;;6172698;23;20718;-82
2021/04/29 03:37:37;;;;;;;18.87;5.60;;;11.70;16.30;;;;;;6185811;23;20475;-82
2021/04/29 03:40:14;;;;;;;19.43;5.87;;;11.60;17.20;;;;;;6195477;23;20739;-83
2021/04/29 03:42:42;;;;;;;18.00;5.90;;;11.60;17.70;;;;;;6194255;23;20412;-83
2021/04/29 03:46:11;;;;;;;;;;;;;;;;;;;;;
2021/04/29 03:48:44;;;;;;;17.57;5.63;;;11.50;18.80;;;;;;6010479;23;20425;-82
2021/04/29 03:51:21;;;;;;;16.93;5.80;;;11.40;19.20;;;;;;6117319;23;20444;-82
2021/04/29 03:54:12;;;;;;;22.03;6.83;;;11.40;20.00;;;;;;6185810;23;20407;-83
2021/04/29 03:57:02;;;;;;;25.13;6.40;;;11.40;20.30;;;;;;6175058;23;20420;-82
2021/04/29 03:59:33;;;;;;;24.07;7.90;;;11.30;21.00;;;;;;6139220;23;20440;-82
2021/04/29 04:02:15;;;;;;;22.50;7.40;;;11.30;21.90;;;;;;6195189;23;20424;-81
2021/04/29 04:04:46;;;;;;;19.10;6.80;;;11.20;22.20;;;;;;6185065;23;20899;-81
2021/04/29 04:07:14;;;;;;;21.87;7.63;;;11.20;22.70;;;;;;6185536;23;20463;-81
2021/04/29 04:09:56;;;;;;;27.43;8.17;;;11.20;23.10;;;;;;6185234;23;20408;-82
2021/04/29 04:12:22;;;;;;;23.17;9.77;;;11.10;23.80;;;;;;6193251;23;20815;-82
2021/04/29 04:15:20;;;;;;;38.40;8.67;;;11.10;25.00;;;;;;6185136;23;20910;-83
2021/04/29 04:17:50;;;;;;;22.07;9.47;;;11.10;25.00;;;;;;6185377;23;20410;-82
2021/04/29 04:20:22;;;;;;;20.80;9.10;;;11.10;25.10;;;;;;6185185;23;20407;-82
2021/04/29 04:22:50;;;;;;;23.43;9.73;;;11.10;24.70;;;;;;6185555;23;20441;-82
2021/04/29 04:25:17;;;;;;;21.83;7.20;;;11.10;24.60;;;;;;6185450;23;20899;-82
2021/04/29 04:27:50;;;;;;;19.60;8.63;;;11.10;23.10;;;;;;6194453;23;20404;-83
2021/04/29 04:30:41;;;;;;;31.83;11.10;;;11.10;24.10;;;;;;6185329;23;20407;-82
2021/04/29 04:33:18;;;;;;;22.30;9.73;;;11.10;24.20;;;;;;6185581;23;20393;-82
2021/04/29 04:35:48;;;;;;;26.63;11.10;;;11.10;23.60;;;;;;6195196;23;20511;-83
2021/04/29 04:38:34;;;;;;;21.53;10.13;;;11.00;23.50;;;;;;6195555;23;20408;-83
2021/04/29 04:41:44;;;;;;;21.63;8.30;;;11.00;22.90;;;;;;6184152;23;20739;-78
2021/04/29 04:44:11;;;;;;;26.20;10.93;;;11.00;24.00;;;;;;6158527;23;20422;-81
2021/04/29 04:46:37;;;;;;;24.47;11.43;;;10.90;23.30;;;;;;6195575;23;20802;-81
2021/04/29 04:49:04;;;;;;;26.87;10.60;;;10.90;22.90;;;;;;6185413;23;20409;-82
2021/04/29 04:51:46;;;;;;;27.57;10.90;;;10.80;23.80;;;;;;6184484;23;20447;-81
2021/04/29 04:54:25;;;;;;;;;;;;;;;;;;;;;
2021/04/29 04:56:51;;;;;;;19.40;9.57;;;10.70;26.60;;;;;;6190277;23;20472;-81
2021/04/29 04:59:21;;;;;;;21.57;9.53;;;10.60;26.20;;;;;;6195041;23;20407;-77
2021/04/29 05:01:58;;;;;;;26.43;9.40;;;10.50;27.40;;;;;;6184741;23;20494;-81
2021/04/29 05:04:27;;;;;;;29.30;12.00;;;10.40;27.20;;;;;;6184826;23;20438;-81
2021/04/29 05:06:59;;;;;;;23.70;10.47;;;10.40;28.70;;;;;;6185133;23;20456;-80
2021/04/29 05:09:29;;;;;;;24.63;10.73;;;10.30;29.50;;;;;;6195209;23;20399;-82
2021/04/29 05:11:56;;;;;;;24.43;13.33;;;10.20;31.10;;;;;;6183722;23;20768;-82
2021/04/29 05:14:29;;;;;;;24.77;12.33;;;10.10;34.20;;;;;;6194682;23;20440;-81
2021/04/29 05:16:57;;;;;;;26.20;11.93;;;10.00;35.00;;;;;;6194948;23;20409;-82
2021/04/29 05:19:31;;;;;;;30.50;14.40;;;10.00;36.70;;;;;;6184863;23;20404;-81
2021/04/29 05:22:28;;;;;;;34.90;12.27;;;9.90;39.70;;;;;;6185734;23;20892;-82
2021/04/29 05:25:09;;;;;;;29.30;11.37;;;9.90;41.40;;;;;;6106118;23;20422;-81
2021/04/29 05:27:35;;;;;;;27.83;10.93;;;10.00;40.70;;;;;;6195923;23;20411;-82
2021/04/29 05:30:32;;;;;;;25.33;11.40;;;10.10;37.80;;;;;;6196094;23;20410;-82
2021/04/29 05:33:55;;;;;;;;;;;;;;;;;;;;;
2021/04/29 05:36:21;;;;;;;32.03;14.77;;;10.10;37.70;;;;;;6196270;23;20395;-79
2021/04/29 05:39:10;;;;;;;29.73;11.23;;;10.20;38.40;;;;;;6186031;23;20404;-82
2021/04/29 05:41:37;;;;;;;33.20;12.17;;;10.30;36.50;;;;;;6153009;23;20500;-82
2021/04/29 05:44:10;;;;;;;35.50;14.80;;;10.50;35.90;;;;;;6195935;23;20411;-82
2021/04/29 05:46:37;;;;;;;27.67;11.80;;;10.50;34.00;;;;;;6186071;23;20880;-82
2021/04/29 05:49:07;;;;;;;30.53;14.27;;;10.80;31.30;;;;;;6186137;23;20480;-82
2021/04/29 05:51:35;;;;;;;43.90;14.30;;;10.90;28.90;;;;;;6185905;23;20529;-81
2021/04/29 05:54:02;;;;;;;29.73;14.77;;;11.20;28.90;;;;;;6186671;23;20790;-81
2021/04/29 05:56:29;;;;;;;27.60;11.80;;;11.30;27.90;;;;;;6185051;23;20496;-81
2021/04/29 05:58:56;;;;;;;32.27;14.40;;;11.30;25.00;;;;;;6186833;23;20403;-82
2021/04/29 06:01:57;;;;;;;30.93;12.40;;;11.50;23.40;;;;;;6196202;23;20787;-82
2021/04/29 06:07:29;;;;;;;35.20;14.40;;;11.90;20.60;;;;;;6182879;23;20415;-82
2021/04/29 06:09:57;;;;;;;27.63;11.53;;;12.00;20.80;;;;;;6185661;23;20847;-83
2021/04/29 06:12:29;;;;;;;32.67;12.30;;;12.10;18.50;;;;;;6193878;23;20432;-81
2021/04/29 06:14:56;;;;;;;35.00;13.50;;;12.00;17.30;;;;;;6185988;23;20403;-82
2021/04/29 06:17:24;;;;;;;35.37;15.10;;;11.80;17.30;;;;;;6185928;23;20403;-82
2021/04/29 06:19:50;;;;;;;36.33;13.10;;;11.60;18.60;;;;;;6185807;23;20406;-81
2021/04/29 06:22:17;;;;;;;33.43;13.23;;;11.40;19.90;;;;;;6195909;23;20761;-81
2021/04/29 06:24:44;;;;;;;38.00;16.40;;;11.30;20.80;;;;;;6186217;23;20415;-81
2021/04/29 06:27:11;;;;;;;32.07;13.33;;;11.20;22.20;;;;;;6194330;23;20417;-81
2021/04/29 06:29:38;;;;;;;32.53;13.20;;;11.10;22.50;;;;;;6186372;23;20755;-81
2021/04/29 06:32:05;;;;;;;40.70;15.30;;;11.10;25.00;;;;;;6185237;23;20527;-81
2021/04/29 06:34:31;;;;;;;35.00;12.93;;;11.00;24.80;;;;;;6185921;23;20770;-81
2021/04/29 06:37:00;;;;;;;37.47;16.23;;;10.90;25.90;;;;;;6185733;23;20424;-81
2021/04/29 06:39:26;;;;;;;32.93;16.37;;;10.80;28.20;;;;;;6185872;23;20399;-81
2021/04/29 06:41:53;;;;;;;39.63;18.37;;;10.70;29.30;;;;;;6194387;23;20728;-81
2021/04/29 06:44:19;;;;;;;43.70;19.10;;;10.70;30.80;;;;;;6186294;23;20404;-80
2021/04/29 06:47:01;;;;;;;35.53;17.50;;;10.80;34.20;;;;;;6196272;23;20404;-80
2021/04/29 06:49:28;;;;;;;38.05;20.17;;;10.70;35.30;;;;;;6195303;23;20506;-81
2021/04/29 06:51:55;;;;;;;40.27;16.07;;;10.80;35.80;;;;;;6186070;23;20220;-80
2021/04/29 06:54:22;;;;;;;40.20;20.90;;;10.80;37.50;;;;;;6186247;23;20453;-81
2021/04/29 06:56:48;;;;;;;48.73;22.60;;;10.90;37.90;;;;;;6184807;23;20463;-81
2021/04/29 06:59:14;;;;;;;46.80;20.40;;;10.90;35.90;;;;;;6195881;23;20487;-80
2021/04/29 07:01:50;;;;;;;49.57;21.83;;;11.10;35.90;;;;;;6186113;23;20403;-80
2021/04/29 07:04:17;;;;;;;56.07;23.50;;;11.10;35.40;;;;;;6185725;23;20403;-81
2021/04/29 07:06:45;;;;;;;51.30;21.00;;;11.30;34.20;;;;;;6185769;23;20459;-81
2021/04/29 07:09:11;;;;;;;42.80;19.67;;;11.30;32.50;;;;;;6195624;23;20725;-81
2021/04/29 07:11:38;;;;;;;46.23;20.60;;;11.40;31.20;;;;;;6184303;23;20487;-81
2021/04/29 07:14:04;;;;;;;55.73;26.10;;;11.40;31.70;;;;;;6185841;23;20533;-81
2021/04/29 07:16:31;;;;;;;49.47;22.00;;;11.40;33.20;;;;;;6195863;23;20923;-81
2021/04/29 07:18:58;;;;;;;41.93;19.03;;;11.60;30.80;;;;;;6186155;23;20459;-81
2021/04/29 07:21:24;;;;;;;46.93;22.20;;;11.50;28.80;;;;;;6185429;23;20429;-81
2021/04/29 07:26:21;;;;;;;49.70;23.47;;;11.70;28.20;;;;;;6125095;23;20416;-80
2021/04/29 07:28:47;;;;;;;49.83;25.60;;;11.70;27.00;;;;;;6126508;23;20769;-79
2021/04/29 07:31:15;;;;;;;44.13;23.80;;;11.80;27.80;;;;;;6126425;23;20438;-79
2021/04/29 07:33:41;;;;;;;51.33;23.87;;;11.70;25.30;;;;;;6133457;23;20865;-79
2021/04/29 07:36:12;;;;;;;51.33;24.00;;;11.70;25.30;;;;;;6134141;23;20925;-80
2021/04/29 07:38:38;;;;;;;53.63;23.37;;;11.80;25.30;;;;;;6125062;23;20729;-80
2021/04/29 07:41:05;;;;;;;58.73;24.00;;;11.90;27.70;;;;;;6133152;23;20414;-79
2021/04/29 07:43:32;;;;;;;44.70;15.83;;;11.80;24.30;;;;;;6124516;23;20403;-80
2021/04/29 07:45:58;;;;;;;37.90;18.80;;;11.50;22.60;;;;;;6124493;23;20440;-80
2021/04/29 07:48:24;;;;;;;53.13;21.63;;;11.40;23.30;;;;;;6124380;23;20482;-79
2021/04/29 07:50:51;;;;;;;41.90;15.23;;;11.50;25.30;;;;;;6124730;23;21381;-80
2021/04/29 07:53:18;;;;;;;40.80;18.77;;;11.30;24.30;;;;;;6125082;23;20482;-80
2021/04/29 07:55:45;;;;;;;70.23;22.77;;;11.40;24.00;;;;;;6124258;23;20953;-79
2021/04/29 07:58:11;;;;;;;46.77;20.63;;;11.40;23.90;;;;;;6124446;23;20422;-81
2021/04/29 08:00:38;;;;;;;52.13;23.00;;;11.50;23.80;;;;;;6133907;23;20462;-80
2021/04/29 08:03:04;;;;;;;51.00;19.80;;;11.70;23.40;;;;;;6134619;23;20410;-80
2021/04/29 08:05:31;;;;;;;47.67;19.67;;;11.90;22.30;;;;;;6125593;23;20403;-79
2021/04/29 08:07:58;;;;;;;39.50;19.03;;;12.20;20.30;;;;;;6124788;23;20432;-80
2021/04/29 08:10:25;;;;;;;44.17;22.50;;;12.50;17.90;;;;;;6123855;23;20493;-79
2021/04/29 08:12:52;;;;;;;49.70;21.27;;;12.50;18.40;;;;;;6124061;23;20477;-80
2021/04/29 08:15:18;;;;;;;51.57;21.73;;;12.30;18.30;;;;;;6127798;23;20410;-80
2021/04/29 08:17:44;;;;;;;53.13;21.87;;;12.10;19.20;;;;;;6134532;23;20449;-80
2021/04/29 08:20:12;;;;;;;54.60;22.03;;;12.50;19.00;;;;;;6124529;23;20496;-80
2021/04/29 08:22:40;;;;;;;47.70;21.30;;;12.60;18.50;;;;;;6124882;23;21020;-80
2021/04/29 08:25:08;;;;;;;46.57;21.00;;;12.80;16.40;;;;;;6134512;23;20445;-79
2021/04/29 08:27:35;;;;;;;52.83;20.57;;;12.60;14.40;;;;;;6122896;23;20404;-80
2021/04/29 08:30:01;;;;;;;47.87;20.83;;;13.00;13.50;;;;;;6124595;23;20492;-80
2021/04/29 08:32:30;;;;;;;46.80;20.70;;;12.70;11.30;;;;;;6124291;23;20470;-80
2021/04/29 08:34:56;;;;;;;45.10;19.50;;;12.70;13.10;;;;;;6124629;23;20485;-80
2021/04/29 08:37:22;;;;;;;46.00;19.13;;;13.00;10.80;;;;;;6134737;23;20414;-80
2021/04/29 08:39:49;;;;;;;45.67;19.70;;;13.10;11.10;;;;;;6124313;23;20406;-80
2021/04/29 08:42:16;;;;;;;41.53;18.30;;;13.10;11.40;;;;;;6123495;23;20956;-80
2021/04/29 08:44:43;;;;;;;38.97;15.60;;;13.20;10.30;;;;;;6124248;23;20406;-80
2021/04/29 08:47:10;;;;;;;45.23;17.20;;;13.70;9.40;;;;;;6127593;23;20871;-80
2021/04/29 08:49:39;;;;;;;33.83;17.10;;;13.90;7.30;;;;;;6124660;23;20966;-80
2021/04/29 08:52:07;;;;;;;42.47;17.20;;;14.00;6.30;;;;;;6134214;23;20456;-80
2021/04/29 08:54:36;;;;;;;39.27;15.07;;;13.90;5.00;;;;;;6124371;23;20427;-80
2021/04/29 08:57:03;;;;;;;39.10;13.93;;;13.50;4.90;;;;;;6125884;23;20435;-80
2021/04/29 08:59:40;;;;;;;42.60;15.17;;;13.30;6.40;;;;;;6135427;23;20486;-80
2021/04/29 09:02:08;;;;;;;44.80;18.03;;;13.60;5.80;;;;;;6125769;23;20402;-80
2021/04/29 09:04:40;;;;;;;46.80;16.17;;;13.40;6.50;;;;;;6126518;23;20430;-80
2021/04/29 09:07:19;;;;;;;38.50;17.10;;;13.50;5.70;;;;;;6127198;23;20403;-80
2021/04/29 09:09:46;;;;;;;51.90;19.53;;;14.10;4.40;;;;;;6135985;23;20947;-81
2021/04/29 09:12:14;;;;;;;46.10;18.87;;;14.20;2.60;;;;;;6125002;23;20434;-80
2021/04/29 09:14:42;;;;;;;59.97;17.67;;;14.20;2.30;;;;;;6126194;23;20414;-80
2021/04/29 09:17:23;;;;;;;41.47;18.17;;;13.90;4.70;;;;;;6126351;23;20487;-80
2021/04/29 09:19:50;;;;;;;41.50;17.90;;;13.30;5.10;;;;;;6125881;23;20489;-80
2021/04/29 09:22:18;;;;;;;42.07;17.70;;;13.30;6.70;;;;;;6135617;23;20871;-80
2021/04/29 09:24:44;;;;;;;46.13;19.33;;;13.20;8.10;;;;;;6125606;23;20524;-80
2021/04/29 09:27:12;;;;;;;39.80;18.10;;;13.20;8.20;;;;;;6124837;23;20492;-80
2021/04/29 09:29:52;;;;;;;40.67;17.30;;;13.20;7.80;;;;;;6135807;23;20504;-80
2021/04/29 09:32:33;;;;;;;36.50;18.00;;;13.30;8.20;;;;;;6135243;23;20445;-80
2021/04/29 09:35:01;;;;;;;44.70;17.30;;;13.40;7.50;;;;;;6125927;23;20401;-80
2021/04/29 09:37:28;;;;;;;44.50;17.77;;;13.40;7.50;;;;;;6126469;23;20465;-80
2021/04/29 09:39:55;;;;;;;32.30;14.37;;;14.50;7.10;;;;;;6125987;23;20425;-79
2021/04/29 09:42:28;;;;;;;36.50;15.67;;;14.80;1.00;;;;;;6134153;23;20406;-80
2021/04/29 09:44:55;;;;;;;39.73;14.27;;;14.50;1.00;;;;;;6136035;23;20886;-80
2021/04/29 09:47:21;;;;;;;38.87;15.43;;;14.30;1.00;;;;;;6125942;23;20403;-80
2021/04/29 09:49:48;;;;;;;33.33;12.60;;;14.10;1.00;;;;;;6135501;23;20426;-80
2021/04/29 09:52:19;;;;;;;38.93;15.83;;;14.40;1.40;;;;;;6125788;23;20439;-79
2021/04/29 09:54:47;;;;;;;33.40;13.30;;;14.50;1.00;;;;;;6135294;23;20529;-80
2021/04/29 09:57:20;;;;;;;34.57;14.37;;;14.00;1.00;;;;;;6123903;23;20448;-81
2021/04/29 09:59:48;;;;;;;34.73;15.30;;;13.80;1.50;;;;;;6135179;23;20933;-80
2021/04/29 10:02:16;;;;;;;40.47;13.67;;;14.40;1.30;;;;;;6135359;23;20490;-80
2021/04/29 10:04:44;;;;;;;39.73;16.60;;;14.30;1.00;;;;;;6135712;23;20734;-80
2021/04/29 10:07:17;;;;;;;33.90;14.80;;;14.30;1.00;;;;;;6125714;23;20402;-80
2021/04/29 10:09:46;;;;;;;29.43;10.13;;;14.10;1.00;;;;;;6125712;23;20489;-80
2021/04/29 10:12:15;;;;;;;33.70;12.57;;;14.50;1.00;;;;;;6123518;23;20446;-80
2021/04/29 10:14:45;;;;;;;30.57;11.60;;;15.40;1.00;;;;;;6121068;23;20433;-79
2021/04/29 10:17:13;;;;;;;33.87;14.60;;;15.90;1.00;;;;;;6125595;23;20438;-80
2021/04/29 10:19:42;;;;;;;34.27;13.90;;;16.20;1.00;;;;;;6135061;23;20411;-80
2021/04/29 10:22:15;;;;;;;34.87;12.10;;;16.60;1.00;;;;;;6135807;23;20413;-79
2021/04/29 10:24:48;;;;;;;39.47;13.57;;;16.10;1.00;;;;;;6126632;23;20909;-81
2021/04/29 10:27:23;;;;;;;35.13;12.20;;;16.10;1.00;;;;;;6126284;23;20438;-81
2021/04/29 10:30:18;;;;;;;36.47;13.20;;;16.00;1.00;;;;;;6128746;23;20399;-79
2021/04/29 10:32:44;;;;;;;38.10;13.40;;;15.70;1.00;;;;;;6126721;23;20442;-79
2021/04/29 10:35:18;;;;;;;32.90;12.20;;;15.70;1.00;;;;;;6127277;23;20866;-79
2021/04/29 10:37:57;;;;;;;32.17;12.17;;;15.10;1.00;;;;;;6126947;23;20431;-81
2021/04/29 10:40:34;;;;;;;38.20;11.83;;;15.10;1.00;;;;;;6136225;23;20461;-83
2021/04/29 10:43:01;;;;;;;32.00;12.40;;;15.00;1.00;;;;;;6126934;23;20413;-80
2021/04/29 10:45:30;;;;;;;24.13;8.87;;;14.70;1.00;;;;;;6127173;23;20445;-79
2021/04/29 10:48:07;;;;;;;29.63;10.23;;;14.10;1.00;;;;;;6127027;23;20439;-79
2021/04/29 10:50:45;;;;;;;27.40;11.40;;;13.50;1.00;;;;;;6127084;23;20395;-79
2021/04/29 10:53:13;;;;;;;39.50;11.27;;;12.60;20.70;;;;;;6126890;23;20442;-81
2021/04/29 10:55:43;;;;;;;24.57;10.67;;;11.80;13.60;;;;;;6146225;23;20433;-79
2021/04/29 10:58:22;;;;;;;28.47;12.07;;;10.80;27.40;;;;;;6156527;23;20401;-80
2021/04/29 11:01:00;;;;;;;26.87;9.13;;;10.00;99.90;;;;;;6156479;23;20406;-80
2021/04/29 11:03:32;;;;;;;26.47;9.90;;;9.40;99.90;;;;;;6156403;23;20779;-81
2021/04/29 11:06:15;;;;;;;24.23;10.57;;;9.10;99.90;;;;;;6156347;23;20709;-80
2021/04/29 11:08:46;;;;;;;23.37;9.47;;;8.90;99.90;;;;;;6155854;23;20503;-80
2021/04/29 11:11:27;;;;;;;18.33;8.80;;;8.90;99.90;;;;;;6154836;23;20486;-81
2021/04/29 11:14:05;;;;;;;20.90;9.93;;;8.90;99.90;;;;;;6156359;23;20425;-81
2021/04/29 11:16:44;;;;;;;19.63;9.80;;;9.00;99.90;;;;;;6155816;23;20504;-82
2021/04/29 11:19:36;;;;;;;16.97;8.87;;;10.10;99.90;;;;;;6155878;23;20408;-81
2021/04/29 11:22:02;;;;;;;15.63;6.13;;;11.00;99.90;;;;;;6155887;23;20495;-80
2021/04/29 11:24:36;;;;;;;21.27;5.87;;;11.80;99.90;;;;;;6165780;23;20541;-81
2021/04/29 11:27:04;;;;;;;23.07;6.17;;;12.70;88.10;;;;;;6154259;23;20397;-81
2021/04/29 11:29:38;;;;;;;21.00;8.10;;;13.30;41.90;;;;;;6165720;23;20531;-81
2021/04/29 11:32:05;;;;;;;24.17;8.83;;;14.20;50.10;;;;;;6155609;23;20951;-81
2021/04/29 11:34:42;;;;;;;20.27;5.83;;;14.00;28.80;;;;;;6166132;23;20807;-82
2021/04/29 11:37:08;;;;;;;28.33;8.40;;;13.50;21.60;;;;;;6165484;23;20410;-82
2021/04/29 11:39:35;;;;;;;23.10;7.87;;;13.70;25.60;;;;;;6155683;23;20489;-81
2021/04/29 11:42:01;;;;;;;21.00;5.77;;;13.60;20.80;;;;;;6154603;23;20774;-82
2021/04/29 11:44:28;;;;;;;24.47;7.87;;;13.90;22.10;;;;;;6155725;23;20497;-81
2021/04/29 11:46:55;;;;;;;28.47;7.90;;;13.50;21.20;;;;;;6156150;23;20488;-82
2021/04/29 11:49:22;;;;;;;21.87;6.40;;;13.00;26.10;;;;;;6151483;23;20705;-82
2021/04/29 11:51:50;;;;;;;21.87;5.13;;;12.40;19.60;;;;;;6154261;23;20437;-83
2021/04/29 11:54:18;;;;;;;22.37;7.53;;;12.40;22.00;;;;;;6154202;23;20452;-81
2021/04/29 11:56:46;;;;;;;22.47;6.73;;;12.00;19.00;;;;;;6152905;23;20404;-82
2021/04/29 11:59:15;;;;;;;19.83;6.70;;;11.90;21.30;;;;;;6154448;23;20399;-82
2021/04/29 12:01:42;;;;;;;23.50;6.97;;;11.50;17.30;;;;;;6154247;23;20408;-81
2021/04/29 12:04:16;;;;;;;19.43;6.97;;;11.30;20.80;;;;;;6153777;23;20401;-81
2021/04/29 12:06:50;;;;;;;18.27;7.93;;;11.30;20.80;;;;;;6153987;23;20953;-81
2021/04/29 12:09:17;;;;;;;24.40;6.73;;;11.50;21.30;;;;;;6138333;23;20542;-81
2021/04/29 12:11:43;;;;;;;16.37;6.23;;;12.00;22.40;;;;;;6123206;23;20429;-81
2021/04/29 12:14:12;;;;;;;20.43;6.70;;;12.70;20.60;;;;;;6134188;23;20450;-81
2021/04/29 12:16:39;;;;;;;18.60;5.60;;;13.10;16.80;;;;;;6124574;23;20406;-81
2021/04/29 12:19:07;;;;;;;18.10;4.60;;;13.10;11.40;;;;;;6124314;23;20491;-82
2021/04/29 12:21:34;;;;;;;18.23;5.27;;;13.40;12.20;;;;;;6134064;23;20418;-81
2021/04/29 12:24:02;;;;;;;18.43;4.97;;;13.30;9.10;;;;;;6134315;23;20780;-81
2021/04/29 12:26:32;;;;;;;17.10;5.03;;;12.20;9.80;;;;;;6123397;23;20791;-81
2021/04/29 12:29:01;;;;;;;17.00;4.23;;;11.50;11.80;;;;;;6134766;23;20414;-81
2021/04/29 12:31:28;;;;;;;19.30;5.83;;;11.20;13.40;;;;;;6126186;23;20519;-81
2021/04/29 12:34:00;;;;;;;16.83;4.83;;;11.30;16.30;;;;;;6127958;23;20405;-82
2021/04/29 12:36:28;;;;;;;17.67;4.33;;;11.20;13.40;;;;;;6127911;23;20408;-81
2021/04/29 12:38:54;;;;;;;18.17;4.90;;;11.20;14.80;;;;;;6128336;23;20454;-80
2021/04/29 12:41:25;;;;;;;13.67;5.60;;;11.00;15.40;;;;;;6126778;23;20408;-81
2021/04/29 12:44:04;;;;;;;15.83;5.23;;;10.70;16.70;;;;;;6128198;23;20406;-81
2021/04/29 12:46:32;;;;;;;11.50;2.70;;;10.90;18.10;;;;;;6128176;23;20481;-81
2021/04/29 12:48:59;;;;;;;16.30;5.20;;;11.60;17.10;;;;;;6127553;23;20499;-81
2021/04/29 12:51:25;;;;;;;15.20;6.53;;;11.80;15.10;;;;;;6127625;23;20464;-81
2021/04/29 12:53:55;;;;;;;16.77;5.73;;;12.20;11.50;;;;;;6136597;23;20448;-81
2021/04/29 12:56:25;;;;;;;18.10;5.67;;;11.70;13.60;;;;;;6156266;23;20491;-81
2021/04/29 12:58:52;;;;;;;23.10;6.00;;;11.50;14.60;;;;;;6157521;23;20404;-81
2021/04/29 13:01:23;;;;;;;19.20;6.23;;;10.90;19.70;;;;;;6157395;23;20402;-81
2021/04/29 13:03:50;;;;;;;36.13;7.70;;;10.10;21.40;;;;;;6157485;23;20398;-81
2021/04/29 13:06:17;;;;;;;20.27;6.63;;;9.80;27.60;;;;;;6157117;23;20906;-80
2021/04/29 13:09:03;;;;;;;39.13;7.30;;;9.30;32.40;;;;;;6157442;23;20412;-80